Time;durP1;ratioP1;P1;durP2;ratioP2;P2;SDS_P1;SDS_P2;PMS_P1;PMS_P2;Temp;Humidity;BMP_temperature;BMP_pressure;BME280_temperature;BME280_humidity;BME280_pressure;Samples;Min_cycle;Max_cycle;Signal;HPM_P1;HPM_P2
2022/07/09 00:00:06;;;;;;;3.62;3.12;;;;;;;16.15;67.63;95786.11;1764336;81;20969;-65
2022/07/09 00:02:37;;;;;;;;;;;;;;;16.08;67.27;95791.25;1766595;81;21025;-65
2022/07/09 00:05:05;;;;;;;5.05;3.77;;;;;;;16.01;67.79;95787.94;1767480;81;20103;-64
2022/07/09 00:07:32;;;;;;;4.00;3.60;;;;;;;16.00;67.74;95783.98;1763877;81;21011;-64
2022/07/09 00:09:58;;;;;;;3.90;3.42;;;;;;;16.00;67.73;95787.55;1729758;81;21045;-65
2022/07/09 00:12:25;;;;;;;4.20;3.15;;;;;;;15.96;68.64;95785.91;1764079;81;21554;-65
2022/07/09 00:14:52;;;;;;;5.37;3.80;;;;;;;15.93;68.47;95780.70;1763995;81;21017;-65
2022/07/09 00:17:19;;;;;;;3.30;3.00;;;;;;;15.92;68.38;95781.61;1763816;81;21104;-64
2022/07/09 00:19:45;;;;;;;3.35;3.05;;;;;;;15.90;68.42;95784.81;1764230;81;20945;-64
2022/07/09 00:22:12;;;;;;;4.05;3.15;;;;;;;15.92;68.80;95783.41;1764226;81;20996;-64
2022/07/09 00:24:39;;;;;;;3.83;3.52;;;;;;;15.89;68.33;95776.41;1764184;81;21526;-64
2022/07/09 00:27:06;;;;;;;4.20;2.87;;;;;;;15.84;68.34;95778.84;1764193;81;20957;-65
2022/07/09 00:29:32;;;;;;;3.30;3.00;;;;;;;15.86;68.26;95783.18;1764013;81;21471;-65
2022/07/09 00:31:59;;;;;;;4.20;3.40;;;;;;;15.83;68.53;95780.63;1764405;81;21040;-65
2022/07/09 00:34:26;;;;;;;3.30;3.00;;;;;;;15.79;68.66;95785.65;1763890;81;21025;-65
2022/07/09 00:36:53;;;;;;;3.80;3.25;;;;;;;15.75;69.59;95780.05;1764447;81;20996;-65
2022/07/09 00:39:19;;;;;;;3.95;3.08;;;;;;;15.69;69.77;95778.89;1764362;81;21024;-65
2022/07/09 00:41:46;;;;;;;3.60;3.30;;;;;;;15.67;70.00;95780.27;1765473;81;21012;-65
2022/07/09 00:44:13;;;;;;;5.20;3.45;;;;;;;15.63;70.06;95777.33;1766809;81;21101;-65
2022/07/09 00:46:39;;;;;;;4.10;3.65;;;;;;;15.61;69.96;95774.31;1767174;81;20961;-65
2022/07/09 00:49:06;;;;;;;4.28;3.50;;;;;;;15.59;70.00;95777.87;1766932;81;21522;-65
2022/07/09 00:51:33;;;;;;;4.50;3.70;;;;;;;15.55;71.27;95774.94;1767353;81;21001;-65
2022/07/09 00:54:01;;;;;;;4.55;3.62;;;;;;;15.52;71.02;95780.38;1767054;81;21008;-65
2022/07/09 00:56:29;;;;;;;3.95;3.65;;;;;;;15.51;71.13;95781.27;1766865;81;20961;-65
2022/07/09 00:58:56;;;;;;;4.58;3.55;;;;;;;15.48;70.79;95773.41;1767051;81;20965;-64
2022/07/09 01:01:22;;;;;;;4.50;3.95;;;;;;;15.47;70.78;95772.13;1767261;81;21020;-65
2022/07/09 01:03:49;;;;;;;4.12;3.83;;;;;;;15.50;71.98;95778.69;1766971;81;21009;-65
2022/07/09 01:06:16;;;;;;;4.05;3.75;;;;;;;15.46;71.16;95777.91;1767161;81;20988;-64
2022/07/09 01:08:43;;;;;;;4.05;3.75;;;;;;;15.44;70.62;95773.09;1766902;81;21021;-65
2022/07/09 01:11:10;;;;;;;4.22;3.58;;;;;;;15.42;70.55;95776.30;1767158;81;20969;-65
2022/07/09 01:13:36;;;;;;;5.12;3.67;;;;;;;15.34;71.55;95779.19;1767233;81;21057;-65
2022/07/09 01:16:04;;;;;;;4.67;3.70;;;;;;;15.29;71.78;95775.82;1767363;81;20942;-65
2022/07/09 01:18:31;;;;;;;3.65;3.35;;;;;;;15.26;72.27;95773.73;1767080;81;21505;-64
2022/07/09 01:20:58;;;;;;;3.95;3.40;;;;;;;15.18;72.40;95779.78;1767354;81;20981;-65
2022/07/09 01:23:26;;;;;;;3.75;3.37;;;;;;;15.12;72.37;95775.55;1767181;81;21024;-65
2022/07/09 01:25:55;;;;;;;4.22;3.50;;;;;;;15.09;72.04;95776.52;1767251;81;20984;-65
2022/07/09 01:28:22;;;;;;;5.20;3.72;;;;;;;15.09;72.67;95775.20;1767070;81;20953;-65
2022/07/09 01:30:48;;;;;;;11.83;5.33;;;;;;;15.12;72.15;95775.08;1766711;81;21036;-65
2022/07/09 01:33:15;;;;;;;5.90;3.75;;;;;;;15.19;72.31;95771.73;1767300;81;21412;-65
2022/07/09 01:35:42;;;;;;;5.00;4.00;;;;;;;15.22;71.90;95769.44;1767165;81;20985;-65
2022/07/09 01:38:08;;;;;;;4.65;3.58;;;;;;;15.22;72.06;95770.77;1767296;81;21005;-64
2022/07/09 01:40:35;;;;;;;5.10;3.62;;;;;;;15.25;72.55;95773.34;1767450;81;20945;-65
2022/07/09 01:43:02;;;;;;;6.70;3.70;;;;;;;15.28;72.27;95775.89;1767097;81;21498;-65
2022/07/09 01:45:31;;;;;;;4.10;3.70;;;;;;;15.25;72.13;95778.20;1767374;81;21009;-65
2022/07/09 01:47:58;;;;;;;5.20;3.30;;;;;;;15.23;72.28;95780.50;1767181;81;21060;-65
2022/07/09 01:50:27;;;;;;;4.20;3.30;;;;;;;15.21;71.66;95779.67;1767401;81;21004;-65
2022/07/09 01:52:54;;;;;;;3.67;3.37;;;;;;;15.20;72.07;95772.63;1766837;81;21028;-65
2022/07/09 01:55:21;;;;;;;5.50;3.90;;;;;;;15.24;72.24;95771.59;1767288;81;21016;-65
2022/07/09 01:57:48;;;;;;;4.72;4.08;;;;;;;15.22;71.65;95770.77;1767207;81;21026;-65
2022/07/09 02:00:15;;;;;;;5.55;4.20;;;;;;;15.19;71.72;95766.42;1767363;81;21004;-65
2022/07/09 02:02:43;;;;;;;4.75;4.25;;;;;;;15.17;71.55;95766.96;1767484;81;21061;-65
2022/07/09 02:05:09;;;;;;;6.08;4.60;;;;;;;15.17;71.94;95768.29;1767297;81;21017;-65
2022/07/09 02:07:37;;;;;;;5.70;4.20;;;;;;;15.20;71.69;95772.63;1766923;81;21020;-65
2022/07/09 02:10:05;;;;;;;6.03;5.00;;;;;;;15.23;71.73;95769.40;1767263;81;21040;-65
2022/07/09 02:12:32;;;;;;;5.05;4.55;;;;;;;15.23;71.40;95772.05;1767221;81;21036;-65
2022/07/09 02:14:58;;;;;;;4.95;4.50;;;;;;;15.22;71.81;95777.41;1767223;81;21458;-65
2022/07/09 02:17:25;;;;;;;4.53;4.10;;;;;;;15.21;71.39;95782.33;1767259;81;21008;-65
2022/07/09 02:19:52;;;;;;;4.75;4.35;;;;;;;15.16;71.71;95778.49;1766982;81;21017;-65
2022/07/09 02:22:19;;;;;;;5.70;4.97;;;;;;;15.10;72.16;95785.36;1767270;81;20985;-65
2022/07/09 02:24:45;;;;;;;4.85;4.40;;;;;;;15.04;72.29;95787.73;1767129;81;21010;-65
2022/07/09 02:27:12;;;;;;;5.47;3.92;;;;;;;15.02;72.09;95788.27;1767187;81;20988;-64
2022/07/09 02:29:38;;;;;;;4.80;4.03;;;;;;;14.99;72.57;95787.48;1767406;81;21028;-65
2022/07/09 02:32:07;;;;;;;4.33;3.92;;;;;;;14.93;73.08;95785.44;1767190;81;21024;-65
2022/07/09 02:34:33;;;;;;;6.78;4.10;;;;;;;14.89;73.07;95790.46;1767025;81;20969;-65
2022/07/09 02:37:00;;;;;;;4.67;4.28;;;;;;;14.83;73.29;95791.97;1767137;81;21083;-65
2022/07/09 02:39:27;;;;;;;6.80;4.50;;;;;;;14.81;73.39;95789.81;1767423;81;21005;-65
2022/07/09 02:41:54;;;;;;;4.47;3.90;;;;;;;14.84;73.30;95796.38;1765658;81;21491;-64
2022/07/09 02:44:20;;;;;;;4.10;3.70;;;;;;;14.83;73.31;95790.64;1764136;81;21040;-64
2022/07/09 02:46:47;;;;;;;5.67;3.83;;;;;;;14.78;73.30;95789.05;1764322;81;20992;-64
2022/07/09 02:49:14;;;;;;;4.87;4.47;;;;;;;14.77;73.63;95793.51;1763927;81;21135;-64
2022/07/09 02:51:40;;;;;;;16.40;6.83;;;;;;;14.80;73.65;95788.55;1764314;81;21000;-65
2022/07/09 02:54:07;;;;;;;4.80;4.30;;;;;;;14.80;73.41;95791.21;1764259;81;21526;-64
2022/07/09 02:56:34;;;;;;;9.05;7.45;;;;;;;14.79;73.57;95794.77;1763982;81;21028;-65
2022/07/09 02:59:02;;;;;;;6.50;5.65;;;;;;;14.77;74.12;95793.97;1764113;81;21017;-65
2022/07/09 03:01:29;;;;;;;5.55;4.40;;;;;;;14.75;74.62;95799.78;1764355;81;21479;-64
2022/07/09 03:03:56;;;;;;;31.00;16.07;;;;;;;14.72;75.27;95803.41;1764130;81;20985;-65
2022/07/09 03:06:22;;;;;;;12.82;8.53;;;;;;;14.74;74.55;95801.58;1763922;81;21013;-64
2022/07/09 03:08:49;;;;;;;13.32;8.03;;;;;;;14.78;74.37;95801.02;1764189;81;21470;-65
2022/07/09 03:11:16;;;;;;;16.02;8.70;;;;;;;14.75;73.85;95807.29;1764229;81;21514;-65
2022/07/09 03:13:43;;;;;;;10.03;6.75;;;;;;;14.73;73.36;95805.59;1764310;81;21001;-65
2022/07/09 03:16:09;;;;;;;7.60;5.87;;;;;;;14.71;74.54;95805.17;1764321;81;21017;-64
2022/07/09 03:18:38;;;;;;;10.45;6.80;;;;;;;14.70;74.33;95805.23;1764229;81;21017;-64
2022/07/09 03:21:08;;;;;;;8.33;5.37;;;;;;;14.72;74.18;95803.41;1764328;81;21001;-65
2022/07/09 03:23:34;;;;;;;7.22;5.25;;;;;;;14.83;74.29;95801.73;1764226;81;21482;-65
2022/07/09 03:26:00;;;;;;;10.00;5.00;;;;;;;14.89;74.01;95805.50;1764316;81;21036;-65
2022/07/09 03:28:27;;;;;;;6.33;4.95;;;;;;;14.95;73.66;95801.81;1764311;81;21026;-65
2022/07/09 03:30:54;;;;;;;8.50;5.28;;;;;;;14.97;73.56;95799.52;1763847;81;20997;-65
2022/07/09 03:33:20;;;;;;;8.90;5.25;;;;;;;15.01;73.55;95798.47;1764588;81;21044;-65
2022/07/09 03:35:47;;;;;;;7.28;4.83;;;;;;;15.08;73.33;95804.00;1763888;81;21049;-65
2022/07/09 03:38:14;;;;;;;5.85;5.00;;;;;;;15.13;72.99;95802.06;1764081;81;20993;-65
2022/07/09 03:40:40;;;;;;;5.20;4.70;;;;;;;15.11;72.82;95803.03;1764106;81;21048;-65
2022/07/09 03:43:07;;;;;;;5.28;4.58;;;;;;;15.16;73.03;95811.72;1763855;81;20985;-65
2022/07/09 03:45:35;;;;;;;7.50;4.75;;;;;;;15.18;73.01;95805.03;1764104;81;21024;-65
2022/07/09 03:48:03;;;;;;;4.97;4.47;;;;;;;15.24;73.01;95804.81;1763818;81;21025;-65
2022/07/09 03:50:29;;;;;;;5.03;4.53;;;;;;;15.30;72.41;95799.31;1764144;81;21456;-65
2022/07/09 03:52:56;;;;;;;7.53;4.72;;;;;;;15.36;73.01;95799.95;1763831;81;21009;-65
2022/07/09 03:55:23;;;;;;;7.33;5.12;;;;;;;15.42;72.72;95801.98;1764193;81;21467;-65
2022/07/09 03:57:50;;;;;;;6.80;4.50;;;;;;;15.45;72.19;95802.77;1764287;81;20982;-65
2022/07/09 04:00:17;;;;;;;5.22;4.53;;;;;;;15.52;72.40;95798.98;1763791;81;21073;-65
2022/07/09 04:02:45;;;;;;;5.60;4.53;;;;;;;15.62;72.73;95792.86;1764241;81;20945;-65
2022/07/09 04:05:11;;;;;;;6.53;4.20;;;;;;;15.69;72.47;95793.09;1764004;81;20962;-65
2022/07/09 04:07:39;;;;;;;7.00;4.35;;;;;;;15.78;72.12;95795.43;1764176;81;21475;-65
2022/07/09 04:10:07;;;;;;;4.72;4.22;;;;;;;15.89;71.67;95799.03;1764309;81;21052;-65
2022/07/09 04:12:34;;;;;;;4.50;3.62;;;;;;;15.95;71.34;95792.61;1764033;81;20977;-65
2022/07/09 04:15:01;;;;;;;4.05;3.62;;;;;;;16.01;71.07;95797.72;1764356;81;20985;-65
2022/07/09 04:17:28;;;;;;;5.35;3.47;;;;;;;16.11;71.08;95795.59;1764303;81;21470;-65
2022/07/09 04:19:56;;;;;;;4.25;3.40;;;;;;;16.14;70.48;95795.00;1763690;81;21734;-65
2022/07/09 04:22:22;;;;;;;4.45;3.00;;;;;;;16.22;70.65;95802.70;1764154;81;21471;-65
2022/07/09 04:24:49;;;;;;;3.80;3.22;;;;;;;16.31;70.60;95802.84;1764182;81;21005;-65
2022/07/09 04:27:16;;;;;;;2.92;2.72;;;;;;;16.41;70.05;95794.91;1764124;81;20981;-64
2022/07/09 04:29:43;;;;;;;3.42;2.62;;;;;;;16.52;69.43;95794.48;1763803;81;21072;-65
2022/07/09 04:32:10;;;;;;;2.50;2.30;;;;;;;16.55;69.33;95795.69;1764168;81;21007;-65
2022/07/09 04:34:36;;;;;;;3.60;2.83;;;;;;;16.57;68.63;95793.37;1764086;81;21483;-65
2022/07/09 04:37:04;;;;;;;2.70;2.50;;;;;;;16.57;68.54;95797.36;1764160;81;21522;-65
2022/07/09 04:39:31;;;;;;;3.77;2.50;;;;;;;16.58;68.15;95791.13;1764186;81;21005;-65
2022/07/09 04:41:58;;;;;;;4.75;2.85;;;;;;;16.58;68.58;95799.55;1763787;81;21056;-65
2022/07/09 04:44:24;;;;;;;4.47;2.98;;;;;;;16.65;68.36;95799.25;1764085;81;21013;-65
2022/07/09 04:46:51;;;;;;;2.80;2.55;;;;;;;16.72;68.19;95800.37;1764361;81;21001;-65
2022/07/09 04:49:18;;;;;;;3.15;2.65;;;;;;;16.81;67.64;95796.05;1764082;81;21000;-65
2022/07/09 04:51:45;;;;;;;3.27;2.70;;;;;;;16.74;67.71;95798.05;1764150;81;21013;-65
2022/07/09 04:54:11;;;;;;;2.98;2.77;;;;;;;16.74;67.71;95798.05;1764058;81;20985;-65
2022/07/09 04:56:38;;;;;;;2.72;2.52;;;;;;;16.81;67.46;95801.37;1764164;81;21021;-65
2022/07/09 04:59:05;;;;;;;4.85;3.22;;;;;;;16.98;67.04;95796.68;1763908;81;21064;-65
2022/07/09 05:01:32;;;;;;;3.37;3.08;;;;;;;16.98;67.04;95796.68;1763971;81;21491;-65
2022/07/09 05:03:59;;;;;;;3.10;2.85;;;;;;;17.04;66.56;95800.45;1764211;81;20973;-65
2022/07/09 05:06:25;;;;;;;4.87;2.80;;;;;;;17.10;66.51;95797.52;1763923;81;21005;-65
2022/07/09 05:08:52;;;;;;;3.20;3.00;;;;;;;17.18;66.68;95792.73;1764119;81;21016;-65
2022/07/09 05:11:19;;;;;;;3.62;3.22;;;;;;;17.24;66.40;95800.49;1764040;81;21080;-65
2022/07/09 05:13:46;;;;;;;3.98;2.83;;;;;;;17.23;65.96;95798.73;1763696;81;21495;-65
2022/07/09 05:16:14;;;;;;;3.60;3.30;;;;;;;17.23;66.37;95798.73;1763835;81;21051;-65
2022/07/09 05:18:41;;;;;;;4.47;3.12;;;;;;;17.29;66.54;95793.64;1763859;81;21155;-65
2022/07/09 05:21:07;;;;;;;4.00;2.92;;;;;;;17.43;66.28;95795.71;1764076;81;21049;-65
2022/07/09 05:23:34;;;;;;;4.28;3.05;;;;;;;17.52;66.02;95790.86;1764047;81;21475;-65
2022/07/09 05:26:01;;;;;;;3.92;3.02;;;;;;;17.61;65.80;95796.72;1764152;81;21553;-65
2022/07/09 05:28:28;;;;;;;3.95;3.08;;;;;;;17.68;65.04;95797.72;1763987;81;20981;-65
2022/07/09 05:30:54;;;;;;;4.80;3.05;;;;;;;17.71;65.13;95788.72;1763766;81;21020;-65
2022/07/09 05:33:21;;;;;;;3.80;3.00;;;;;;;17.71;65.17;95790.95;1764392;81;21055;-64
2022/07/09 05:35:48;;;;;;;3.20;3.00;;;;;;;17.78;65.59;95790.19;1763845;81;21028;-65
2022/07/09 05:38:15;;;;;;;4.33;3.22;;;;;;;17.90;65.43;95792.36;1764176;81;21503;-65
2022/07/09 05:40:42;;;;;;;4.28;3.05;;;;;;;18.00;65.46;95783.95;1764366;81;20997;-65
2022/07/09 05:43:09;;;;;;;5.30;2.85;;;;;;;18.09;64.81;95784.41;1763821;81;21467;-65
2022/07/09 05:45:35;;;;;;;6.85;3.02;;;;;;;18.08;64.31;95785.80;1764093;81;20962;-65
2022/07/09 05:48:03;;;;;;;3.20;2.90;;;;;;;18.10;64.52;95782.12;1764251;81;21005;-65
2022/07/09 05:50:30;;;;;;;3.52;3.10;;;;;;;18.15;64.32;95780.11;1763857;81;21084;-65
2022/07/09 05:52:56;;;;;;;3.83;3.15;;;;;;;18.21;63.86;95790.98;1763828;81;21009;-65
2022/07/09 05:55:23;;;;;;;6.78;3.30;;;;;;;18.27;64.01;95785.81;1764137;81;21006;-65
2022/07/09 05:57:50;;;;;;;2.98;2.70;;;;;;;18.38;64.22;95784.87;1764276;81;21009;-65
2022/07/09 06:00:17;;;;;;;3.98;3.10;;;;;;;18.46;63.76;95784.52;1763997;81;21045;-65
2022/07/09 06:02:44;;;;;;;6.47;3.30;;;;;;;18.57;63.45;95788.87;1763961;81;21056;-65
2022/07/09 06:05:10;;;;;;;5.00;3.27;;;;;;;18.64;63.12;95786.78;1764051;81;21076;-65
2022/07/09 06:07:37;;;;;;;4.35;3.00;;;;;;;18.71;62.96;95787.76;1764486;81;21044;-65
2022/07/09 06:10:05;;;;;;;3.70;3.15;;;;;;;18.71;62.23;95789.09;1763932;81;21064;-65
2022/07/09 06:12:32;;;;;;;4.55;2.92;;;;;;;18.76;62.26;95791.59;1764082;81;21020;-65
2022/07/09 06:14:58;;;;;;;4.83;3.27;;;;;;;18.77;62.14;95783.51;1764231;81;21503;-65
2022/07/09 06:17:25;;;;;;;4.37;3.08;;;;;;;18.88;62.56;95786.99;1763881;81;21101;-65
2022/07/09 06:19:52;;;;;;;3.75;3.27;;;;;;;18.98;61.81;95782.93;1764042;81;21511;-65
2022/07/09 06:22:19;;;;;;;3.10;2.80;;;;;;;19.00;61.08;95782.39;1763973;81;21092;-65
2022/07/09 06:24:45;;;;;;;3.90;3.60;;;;;;;19.02;61.38;95782.30;1764329;81;21467;-65
2022/07/09 06:27:12;;;;;;;3.80;3.40;;;;;;;19.13;61.44;95781.80;1763580;81;21021;-65
2022/07/09 06:29:39;;;;;;;6.72;3.25;;;;;;;19.18;60.38;95778.42;1764032;81;21507;-65
2022/07/09 06:32:07;;;;;;;6.22;3.10;;;;;;;19.14;60.44;95780.36;1763925;81;21100;-65
2022/07/09 06:34:34;;;;;;;3.40;3.10;;;;;;;19.16;60.57;95781.16;1764309;81;21459;-65
2022/07/09 06:37:01;;;;;;;3.50;3.20;;;;;;;19.23;60.98;95781.73;1764230;81;21497;-65
2022/07/09 06:39:46;;;;;;;3.60;3.30;;;;;;;19.33;60.17;95780.33;1764063;81;21028;-65
2022/07/09 06:42:14;;;;;;;3.55;3.20;;;;;;;19.43;60.34;95769.55;1764295;81;21482;-65
2022/07/09 06:44:43;;;;;;;4.58;3.52;;;;;;;19.49;59.43;95774.20;1763667;81;21064;-65
2022/07/09 06:47:11;;;;;;;3.90;3.60;;;;;;;19.55;59.62;95770.72;1764023;81;21053;-65
2022/07/09 06:49:37;;;;;;;5.70;3.22;;;;;;;19.64;59.53;95769.40;1764256;81;21005;-65
2022/07/09 06:52:06;;;;;;;3.52;3.22;;;;;;;19.70;58.91;95773.59;1764367;81;21044;-65
2022/07/09 06:54:34;;;;;;;6.53;4.22;;;;;;;19.66;58.05;95775.06;1764161;81;20976;-65
2022/07/09 06:57:02;;;;;;;3.62;3.33;;;;;;;19.80;58.86;95777.05;1764172;81;21021;-65
2022/07/09 06:59:29;;;;;;;5.37;3.50;;;;;;;19.87;58.57;95779.80;1764134;81;21013;-65
2022/07/09 07:01:56;;;;;;;3.98;3.62;;;;;;;19.93;58.24;95774.59;1763787;81;21076;-65
2022/07/09 07:04:24;;;;;;;3.70;3.40;;;;;;;19.98;58.34;95772.56;1764313;81;20989;-65
2022/07/09 07:06:51;;;;;;;8.85;4.92;;;;;;;20.01;57.99;95760.34;1763887;81;21160;-65
2022/07/09 07:09:20;;;;;;;5.42;3.83;;;;;;;20.05;57.49;95762.38;1764120;81;21060;-65
2022/07/09 07:11:49;;;;;;;4.33;3.92;;;;;;;20.00;57.42;95765.77;1763912;81;21097;-65
2022/07/09 07:14:17;;;;;;;4.00;3.60;;;;;;;20.04;57.73;95764.67;1763670;81;20977;-65
2022/07/09 07:16:44;;;;;;;5.22;4.25;;;;;;;20.16;57.34;95755.98;1764218;81;21028;-65
2022/07/09 07:19:11;;;;;;;16.07;12.78;;;;;;;20.24;57.14;95760.45;1764251;81;21036;-65
2022/07/09 07:21:39;;;;;;;4.83;3.90;;;;;;;20.24;56.07;95754.23;1764320;81;21005;-65
2022/07/09 07:24:07;;;;;;;29.05;21.68;;;;;;;20.29;56.83;95763.73;1764122;81;21451;-65
2022/07/09 07:26:35;;;;;;;12.73;8.78;;;;;;;20.42;56.73;95757.23;1764011;81;21053;-65
2022/07/09 07:29:03;;;;;;;9.25;7.12;;;;;;;20.50;55.38;95756.81;1763776;81;21538;-65
2022/07/09 07:31:29;;;;;;;10.03;6.28;;;;;;;20.55;56.00;95763.30;1764339;81;21000;-65
2022/07/09 07:33:56;;;;;;;10.05;6.62;;;;;;;20.69;56.21;95764.27;1764238;81;21020;-65
2022/07/09 07:36:23;;;;;;;8.43;6.00;;;;;;;20.83;54.89;95759.45;1764296;81;21001;-65
2022/07/09 07:38:49;;;;;;;6.22;4.10;;;;;;;20.93;54.16;95759.80;1764361;81;21033;-65
2022/07/09 07:41:16;;;;;;;5.85;4.45;;;;;;;21.03;54.28;95754.77;1764329;81;20973;-65
2022/07/09 07:43:43;;;;;;;5.03;3.92;;;;;;;21.13;53.95;95758.17;1765447;81;21021;-65
2022/07/09 07:46:10;;;;;;;5.95;3.40;;;;;;;21.17;53.72;95758.88;1766778;81;21073;-65
2022/07/09 07:48:37;;;;;;;3.67;3.40;;;;;;;21.23;53.65;95757.17;1767086;81;21558;-65
2022/07/09 07:51:05;;;;;;;7.20;4.28;;;;;;;21.29;54.07;95756.83;1766954;81;21025;-65
2022/07/09 07:53:32;;;;;;;8.35;5.65;;;;;;;21.45;53.65;95760.84;1767220;81;20957;-65
2022/07/09 07:56:01;;;;;;;5.42;3.85;;;;;;;21.48;52.39;95762.00;1767160;81;21009;-65
2022/07/09 07:58:28;;;;;;;4.72;3.87;;;;;;;21.63;52.49;95759.38;1767023;81;21000;-65
2022/07/09 08:00:54;;;;;;;4.08;3.67;;;;;;;21.65;52.01;95761.49;1767250;81;21009;-65
2022/07/09 08:03:21;;;;;;;4.60;4.25;;;;;;;21.77;52.70;95755.36;1767033;81;21044;-65
2022/07/09 08:05:48;;;;;;;7.20;4.75;;;;;;;22.00;52.47;95758.88;1766952;81;21024;-65
2022/07/09 08:08:15;;;;;;;4.03;3.72;;;;;;;22.17;51.29;95754.27;1767170;81;21027;-65
2022/07/09 08:10:42;;;;;;;4.95;4.50;;;;;;;22.31;51.14;95750.28;1766822;81;20989;-65
2022/07/09 08:13:11;;;;;;;4.00;3.70;;;;;;;22.52;49.74;95749.89;1767205;81;20977;-65
2022/07/09 08:15:37;;;;;;;7.70;4.00;;;;;;;22.56;48.79;95751.44;1767077;81;21013;-65
2022/07/09 08:18:05;;;;;;;7.22;3.75;;;;;;;22.65;48.48;95748.14;1766913;81;21021;-65
2022/07/09 08:20:33;;;;;;;4.47;4.00;;;;;;;22.65;48.41;95746.80;1767134;81;20989;-65
2022/07/09 08:23:00;;;;;;;7.40;4.22;;;;;;;22.78;48.58;95744.17;1767135;81;21008;-65
2022/07/09 08:25:27;;;;;;;4.37;3.95;;;;;;;22.98;48.97;95741.12;1767093;81;21048;-65
2022/07/09 08:27:53;;;;;;;8.05;4.05;;;;;;;23.13;47.46;95745.09;1767068;81;21008;-65
2022/07/09 08:30:20;;;;;;;9.75;4.53;;;;;;;23.33;46.62;95738.78;1766768;81;21503;-65
2022/07/09 08:32:47;;;;;;;6.25;3.95;;;;;;;23.45;46.08;95736.22;1767080;81;20997;-65
2022/07/09 08:35:14;;;;;;;4.47;4.08;;;;;;;23.61;44.71;95743.66;1767065;81;20958;-65
2022/07/09 08:37:41;;;;;;;4.25;3.85;;;;;;;23.77;45.58;95736.76;1766924;81;21045;-65
2022/07/09 08:40:09;;;;;;;4.28;3.87;;;;;;;24.08;44.89;95744.06;1767044;81;21040;-65
2022/07/09 08:42:37;;;;;;;5.72;3.95;;;;;;;24.32;44.31;95742.34;1767071;81;21017;-65
2022/07/09 08:45:08;;;;;;;7.75;4.12;;;;;;;24.44;43.65;95741.08;1766957;81;21541;-65
2022/07/09 08:47:35;;;;;;;6.78;3.83;;;;;;;24.57;43.79;95732.54;1767186;81;20996;-65
2022/07/09 08:50:03;;;;;;;4.47;3.70;;;;;;;24.79;44.08;95729.12;1766900;81;21020;-65
2022/07/09 08:52:29;;;;;;;3.75;3.45;;;;;;;25.06;43.52;95728.94;1767263;81;20991;-65
2022/07/09 08:54:56;;;;;;;7.87;3.75;;;;;;;25.28;43.72;95730.95;1767211;81;20992;-65
2022/07/09 08:57:22;;;;;;;4.00;3.70;;;;;;;25.54;41.94;95728.11;1767267;81;21035;-65
2022/07/09 08:59:49;;;;;;;7.15;3.42;;;;;;;25.81;42.56;95724.65;1766928;81;20986;-66
2022/07/09 09:02:19;;;;;;;8.35;3.70;;;;;;;25.97;42.27;95727.05;1767252;81;20997;-65
2022/07/09 09:04:44;;;;;;;4.50;3.67;;;;;;;25.77;40.88;95725.00;1766428;81;21029;-65
2022/07/09 09:07:17;;;;;;;4.05;3.62;;;;;;;25.34;41.07;95725.56;1767056;81;21561;-65
2022/07/09 09:09:45;;;;;;;5.97;3.47;;;;;;;24.92;41.80;95727.73;1767327;81;21020;-65
2022/07/09 09:12:13;;;;;;;4.37;3.75;;;;;;;24.53;43.17;95730.53;1767088;81;20981;-65
2022/07/09 09:14:47;;;;;;;5.35;3.98;;;;;;;24.64;43.77;95734.29;1766681;81;20973;-65
2022/07/09 09:17:15;;;;;;;4.83;4.42;;;;;;;24.87;42.47;95726.72;1767223;81;20984;-65
2022/07/09 09:19:41;;;;;;;4.15;3.70;;;;;;;25.18;43.11;95728.56;1767146;81;21020;-65
2022/07/09 09:22:09;;;;;;;5.72;4.00;;;;;;;25.51;42.14;95724.30;1766974;81;20985;-65
2022/07/09 09:24:35;;;;;;;4.75;3.40;;;;;;;25.81;42.36;95727.84;1767032;81;20961;-66
2022/07/09 09:27:03;;;;;;;3.87;3.45;;;;;;;26.04;40.88;95720.69;1766992;81;21522;-65
2022/07/09 09:29:30;;;;;;;7.87;3.72;;;;;;;26.06;40.62;95723.64;1767198;81;20973;-65
2022/07/09 09:31:57;;;;;;;4.30;3.80;;;;;;;25.70;40.04;95728.65;1764602;81;20997;-65
2022/07/09 09:34:24;;;;;;;5.90;3.67;;;;;;;25.20;40.72;95727.94;1766942;81;21028;-65
2022/07/09 09:36:56;;;;;;;7.47;4.97;;;;;;;24.82;41.28;95725.73;1767191;81;21517;-65
2022/07/09 09:39:26;;;;;;;5.50;4.27;;;;;;;24.50;41.33;95732.11;1767483;81;21049;-65
2022/07/09 09:41:56;;;;;;;5.47;4.15;;;;;;;24.11;41.68;95734.41;1767290;81;20984;-65
2022/07/09 09:44:36;;;;;;;5.72;4.40;;;;;;;23.85;42.48;95733.05;1765829;81;21128;-65
2022/07/09 09:46:59;;;;;;;5.03;4.20;;;;;;;23.64;42.32;95727.27;1763200;81;20993;-65
2022/07/09 09:49:26;;;;;;;4.37;3.92;;;;;;;23.45;42.65;95728.14;1764121;81;21044;-65
2022/07/09 09:52:11;;;;;;;7.87;4.10;;;;;;;23.31;43.18;95735.32;1763928;81;21100;-65
2022/07/09 09:54:42;;;;;;;7.92;4.08;;;;;;;23.18;43.05;95722.28;1764368;81;20930;-65
2022/07/09 09:57:13;;;;;;;5.83;4.08;;;;;;;23.19;43.17;95723.17;1764190;81;21502;-65
2022/07/09 09:59:42;;;;;;;8.60;3.75;;;;;;;23.19;43.13;95719.13;1764496;81;20977;-65
2022/07/09 10:02:10;;;;;;;5.03;4.50;;;;;;;23.24;43.01;95716.50;1764188;81;21009;-65
2022/07/09 10:04:43;;;;;;;5.03;4.62;;;;;;;23.58;44.49;95720.94;1764314;81;21012;-65
2022/07/09 10:07:11;;;;;;;;;;;;;;;23.73;43.74;95709.64;1766842;81;21487;-65
2022/07/09 10:09:39;;;;;;;6.35;3.58;;;;;;;23.93;43.44;95705.06;1732523;83;20104;-65
2022/07/09 10:12:10;;;;;;;10.28;3.95;;;;;;;24.37;42.75;95706.97;1764197;81;21045;-65
2022/07/09 10:14:39;;;;;;;4.17;3.67;;;;;;;24.59;41.37;95691.45;1764369;81;21439;-65
2022/07/09 10:17:15;;;;;;;5.00;4.15;;;;;;;24.53;41.80;95696.81;1763823;81;21021;-65
2022/07/09 10:20:04;;;;;;;5.17;4.08;;;;;;;24.34;42.00;95700.41;1764333;81;21023;-65
2022/07/09 10:22:44;;;;;;;6.78;3.87;;;;;;;24.15;42.15;95703.58;1763404;81;21068;-65
2022/07/09 10:25:30;;;;;;;4.10;3.80;;;;;;;24.08;42.21;95704.98;1763129;81;21015;-65
2022/07/09 10:27:57;;;;;;;4.03;3.72;;;;;;;23.93;43.18;95693.44;1764037;81;21024;-65
2022/07/09 10:30:33;;;;;;;4.20;3.80;;;;;;;24.37;43.09;95694.83;1764257;81;20980;-65
2022/07/09 10:33:09;;;;;;;4.80;4.35;;;;;;;24.65;42.07;95686.13;1764202;81;21012;-65
2022/07/09 10:35:46;;;;;;;5.28;4.15;;;;;;;25.03;40.49;95688.69;1764394;81;21001;-65
2022/07/09 10:38:14;;;;;;;4.78;4.10;;;;;;;25.15;39.59;95675.62;1763063;81;21064;-65
2022/07/09 10:40:48;;;;;;;7.37;5.15;;;;;;;25.10;39.98;95682.31;1764143;81;20993;-65
2022/07/09 10:43:15;;;;;;;4.15;3.80;;;;;;;25.04;38.99;95677.75;1764254;81;20997;-65
2022/07/09 10:45:46;;;;;;;6.50;3.98;;;;;;;25.06;39.88;95673.59;1763802;81;21025;-65
2022/07/09 10:48:15;;;;;;;4.80;4.05;;;;;;;25.02;40.47;95672.98;1764238;81;21045;-65
2022/07/09 10:50:45;;;;;;;6.72;4.37;;;;;;;25.12;40.88;95670.92;1764106;81;21072;-65
2022/07/09 10:53:13;;;;;;;8.28;4.40;;;;;;;25.44;40.75;95665.81;1764102;81;21005;-65
2022/07/09 10:55:44;;;;;;;6.83;4.33;;;;;;;25.83;39.34;95667.28;1764120;81;21554;-65
2022/07/09 10:58:19;;;;;;;5.17;4.33;;;;;;;26.12;39.09;95665.00;1764445;81;21060;-65
2022/07/09 11:00:58;;;;;;;6.35;5.05;;;;;;;26.46;38.05;95659.61;1763697;81;21028;-65
2022/07/09 11:03:27;;;;;;;5.47;4.17;;;;;;;26.60;37.34;95662.57;1764287;81;21017;-65
2022/07/09 11:05:54;;;;;;;5.90;4.12;;;;;;;26.21;37.05;95674.74;1764241;81;21040;-65
2022/07/09 11:08:21;;;;;;;8.10;4.20;;;;;;;25.90;37.29;95671.27;1764163;81;21028;-65
2022/07/09 11:10:48;;;;;;;4.50;4.08;;;;;;;25.59;37.92;95668.69;1764245;81;21024;-65
2022/07/09 11:13:15;;;;;;;5.08;4.42;;;;;;;25.40;38.24;95675.12;1764185;81;20989;-65
2022/07/09 11:15:42;;;;;;;5.95;4.60;;;;;;;25.41;38.30;95665.56;1764450;81;20957;-65
2022/07/09 11:18:13;;;;;;;6.42;4.47;;;;;;;25.39;39.27;95674.27;1763987;81;21008;-65
2022/07/09 11:20:46;;;;;;;4.67;4.28;;;;;;;25.38;39.15;95669.00;1763847;81;20967;-65
2022/07/09 11:23:14;;;;;;;9.00;5.22;;;;;;;25.94;39.49;95661.56;1764032;81;21041;-65
2022/07/09 11:25:42;;;;;;;4.72;4.33;;;;;;;26.55;38.10;95653.97;1764147;81;21018;-65
2022/07/09 11:28:23;;;;;;;9.60;4.40;;;;;;;26.83;36.66;95663.39;1764215;81;20985;-65
2022/07/09 11:31:04;;;;;;;6.35;4.17;;;;;;;27.00;35.94;95663.36;1762931;81;21031;-65
2022/07/09 11:34:16;;;;;;;4.50;4.08;;;;;;;27.07;35.95;95661.87;1764222;81;20941;-65
2022/07/09 11:36:00;;;;;;;6.08;4.25;;;;;;;26.79;36.18;95668.71;1744776;81;21017;-65